sensor_id;sensor_type;location;lat;lon;timestamp;P1;durP1;ratioP1;P2;durP2;ratioP2
11453;SDS011;5783;55.174;61.310;2023-01-19T00:01:41;6.60;;;2.90;;
11453;SDS011;5783;55.174;61.310;2023-01-19T00:04:11;4.87;;;2.70;;
11453;SDS011;5783;55.174;61.310;2023-01-19T00:06:40;6.30;;;2.93;;
11453;SDS011;5783;55.174;61.310;2023-01-19T00:09:09;8.37;;;2.90;;
11453;SDS011;5783;55.174;61.310;2023-01-19T00:11:38;7.03;;;2.90;;
11453;SDS011;5783;55.174;61.310;2023-01-19T00:14:07;6.20;;;3.00;;
11453;SDS011;5783;55.174;61.310;2023-01-19T00:16:36;4.80;;;2.90;;
11453;SDS011;5783;55.174;61.310;2023-01-19T00:19:05;6.70;;;2.60;;
11453;SDS011;5783;55.174;61.310;2023-01-19T00:21:36;6.27;;;3.07;;
11453;SDS011;5783;55.174;61.310;2023-01-19T00:24:05;6.13;;;3.07;;
11453;SDS011;5783;55.174;61.310;2023-01-19T00:26:34;5.40;;;2.70;;
11453;SDS011;5783;55.174;61.310;2023-01-19T00:29:05;4.70;;;2.77;;
11453;SDS011;5783;55.174;61.310;2023-01-19T00:31:35;4.23;;;2.60;;
11453;SDS011;5783;55.174;61.310;2023-01-19T00:34:04;5.73;;;2.70;;
11453;SDS011;5783;55.174;61.310;2023-01-19T00:36:34;5.50;;;3.07;;
11453;SDS011;5783;55.174;61.310;2023-01-19T00:39:03;7.43;;;2.90;;
11453;SDS011;5783;55.174;61.310;2023-01-19T00:41:33;7.80;;;3.20;;
11453;SDS011;5783;55.174;61.310;2023-01-19T00:44:21;7.17;;;3.10;;
11453;SDS011;5783;55.174;61.310;2023-01-19T00:46:50;8.83;;;3.23;;
11453;SDS011;5783;55.174;61.310;2023-01-19T00:49:20;8.03;;;3.20;;
11453;SDS011;5783;55.174;61.310;2023-01-19T00:51:49;7.07;;;3.20;;
11453;SDS011;5783;55.174;61.310;2023-01-19T00:54:18;8.87;;;3.03;;
11453;SDS011;5783;55.174;61.310;2023-01-19T00:56:47;6.53;;;2.90;;
11453;SDS011;5783;55.174;61.310;2023-01-19T00:59:16;7.20;;;3.20;;
11453;SDS011;5783;55.174;61.310;2023-01-19T01:01:45;7.43;;;3.10;;
11453;SDS011;5783;55.174;61.310;2023-01-19T01:04:14;5.30;;;2.90;;
11453;SDS011;5783;55.174;61.310;2023-01-19T01:06:43;6.50;;;3.43;;
11453;SDS011;5783;55.174;61.310;2023-01-19T01:09:13;9.20;;;3.17;;
11453;SDS011;5783;55.174;61.310;2023-01-19T01:11:42;10.67;;;3.40;;
11453;SDS011;5783;55.174;61.310;2023-01-19T01:14:11;9.13;;;3.10;;
11453;SDS011;5783;55.174;61.310;2023-01-19T01:16:41;8.63;;;3.30;;
11453;SDS011;5783;55.174;61.310;2023-01-19T01:19:10;8.57;;;3.37;;
11453;SDS011;5783;55.174;61.310;2023-01-19T01:21:39;6.40;;;3.37;;
11453;SDS011;5783;55.174;61.310;2023-01-19T01:24:08;7.87;;;3.37;;
11453;SDS011;5783;55.174;61.310;2023-01-19T01:26:37;10.43;;;3.33;;
11453;SDS011;5783;55.174;61.310;2023-01-19T01:29:06;8.23;;;3.27;;
11453;SDS011;5783;55.174;61.310;2023-01-19T01:31:35;10.67;;;3.60;;
11453;SDS011;5783;55.174;61.310;2023-01-19T01:34:06;9.83;;;3.20;;
11453;SDS011;5783;55.174;61.310;2023-01-19T01:36:36;11.33;;;3.63;;
11453;SDS011;5783;55.174;61.310;2023-01-19T01:39:05;11.67;;;3.70;;
11453;SDS011;5783;55.174;61.310;2023-01-19T01:41:34;14.60;;;4.07;;
11453;SDS011;5783;55.174;61.310;2023-01-19T01:44:41;17.50;;;4.30;;
11453;SDS011;5783;55.174;61.310;2023-01-19T01:46:37;17.87;;;4.73;;
11453;SDS011;5783;55.174;61.310;2023-01-19T01:49:07;21.93;;;4.60;;
11453;SDS011;5783;55.174;61.310;2023-01-19T01:51:56;18.60;;;4.83;;
11453;SDS011;5783;55.174;61.310;2023-01-19T01:54:27;16.27;;;4.80;;
11453;SDS011;5783;55.174;61.310;2023-01-19T01:56:59;30.30;;;5.60;;
11453;SDS011;5783;55.174;61.310;2023-01-19T02:05:29;23.47;;;5.07;;
11453;SDS011;5783;55.174;61.310;2023-01-19T02:11:10;23.13;;;5.83;;
11453;SDS011;5783;55.174;61.310;2023-01-19T02:14:02;20.97;;;5.07;;
11453;SDS011;5783;55.174;61.310;2023-01-19T02:16:31;21.40;;;4.97;;
11453;SDS011;5783;55.174;61.310;2023-01-19T02:19:02;20.03;;;4.63;;
11453;SDS011;5783;55.174;61.310;2023-01-19T02:24:24;21.87;;;5.40;;
11453;SDS011;5783;55.174;61.310;2023-01-19T02:26:54;22.80;;;5.50;;
11453;SDS011;5783;55.174;61.310;2023-01-19T02:29:24;24.67;;;5.73;;
11453;SDS011;5783;55.174;61.310;2023-01-19T02:31:55;18.90;;;5.00;;
11453;SDS011;5783;55.174;61.310;2023-01-19T02:34:25;24.87;;;4.47;;
11453;SDS011;5783;55.174;61.310;2023-01-19T02:36:55;19.80;;;4.70;;
11453;SDS011;5783;55.174;61.310;2023-01-19T02:39:46;19.50;;;4.63;;
11453;SDS011;5783;55.174;61.310;2023-01-19T02:45:25;17.67;;;4.17;;
11453;SDS011;5783;55.174;61.310;2023-01-19T02:47:55;13.07;;;4.13;;
11453;SDS011;5783;55.174;61.310;2023-01-19T03:11:49;10.30;;;3.10;;
11453;SDS011;5783;55.174;61.310;2023-01-19T03:14:20;8.57;;;3.03;;
11453;SDS011;5783;55.174;61.310;2023-01-19T03:19:42;6.10;;;2.70;;
11453;SDS011;5783;55.174;61.310;2023-01-19T03:22:16;5.87;;;2.60;;
11453;SDS011;5783;55.174;61.310;2023-01-19T03:24:46;3.87;;;2.30;;
11453;SDS011;5783;55.174;61.310;2023-01-19T03:27:20;5.97;;;2.30;;
11453;SDS011;5783;55.174;61.310;2023-01-19T03:29:51;3.73;;;2.10;;
11453;SDS011;5783;55.174;61.310;2023-01-19T03:32:26;5.27;;;2.10;;
11453;SDS011;5783;55.174;61.310;2023-01-19T03:34:56;4.13;;;2.20;;
11453;SDS011;5783;55.174;61.310;2023-01-19T03:37:28;5.50;;;2.20;;
11453;SDS011;5783;55.174;61.310;2023-01-19T03:39:58;5.93;;;2.30;;
11453;SDS011;5783;55.174;61.310;2023-01-19T03:42:28;3.10;;;2.10;;
11453;SDS011;5783;55.174;61.310;2023-01-19T03:44:57;3.10;;;1.90;;
11453;SDS011;5783;55.174;61.310;2023-01-19T03:47:30;4.70;;;2.20;;
11453;SDS011;5783;55.174;61.310;2023-01-19T03:50:01;4.03;;;1.80;;
11453;SDS011;5783;55.174;61.310;2023-01-19T03:52:32;2.63;;;1.90;;
11453;SDS011;5783;55.174;61.310;2023-01-19T03:55:02;3.77;;;2.00;;
11453;SDS011;5783;55.174;61.310;2023-01-19T03:57:32;3.67;;;1.83;;
11453;SDS011;5783;55.174;61.310;2023-01-19T04:00:02;3.43;;;2.00;;
11453;SDS011;5783;55.174;61.310;2023-01-19T04:02:32;3.33;;;2.10;;
11453;SDS011;5783;55.174;61.310;2023-01-19T04:05:01;2.50;;;2.03;;
11453;SDS011;5783;55.174;61.310;2023-01-19T04:07:30;3.80;;;1.80;;
11453;SDS011;5783;55.174;61.310;2023-01-19T04:09:59;3.50;;;1.90;;
11453;SDS011;5783;55.174;61.310;2023-01-19T04:12:30;3.87;;;1.80;;
11453;SDS011;5783;55.174;61.310;2023-01-19T04:14:59;4.00;;;2.20;;
11453;SDS011;5783;55.174;61.310;2023-01-19T04:17:30;2.90;;;1.73;;
11453;SDS011;5783;55.174;61.310;2023-01-19T04:19:59;2.93;;;1.73;;
11453;SDS011;5783;55.174;61.310;2023-01-19T04:22:30;3.20;;;2.10;;
11453;SDS011;5783;55.174;61.310;2023-01-19T04:25:00;2.97;;;1.77;;
11453;SDS011;5783;55.174;61.310;2023-01-19T04:27:31;2.70;;;2.00;;
11453;SDS011;5783;55.174;61.310;2023-01-19T04:30:00;2.97;;;2.10;;
11453;SDS011;5783;55.174;61.310;2023-01-19T04:32:31;3.00;;;2.00;;
11453;SDS011;5783;55.174;61.310;2023-01-19T04:35:00;3.13;;;2.03;;
11453;SDS011;5783;55.174;61.310;2023-01-19T04:37:31;3.33;;;2.17;;
11453;SDS011;5783;55.174;61.310;2023-01-19T04:40:00;4.13;;;2.10;;
11453;SDS011;5783;55.174;61.310;2023-01-19T04:42:31;5.60;;;2.17;;
11453;SDS011;5783;55.174;61.310;2023-01-19T04:45:00;4.70;;;2.20;;
11453;SDS011;5783;55.174;61.310;2023-01-19T04:47:31;4.63;;;2.30;;
11453;SDS011;5783;55.174;61.310;2023-01-19T04:50:01;3.17;;;2.10;;
11453;SDS011;5783;55.174;61.310;2023-01-19T04:52:32;3.50;;;2.00;;
11453;SDS011;5783;55.174;61.310;2023-01-19T04:55:03;3.90;;;2.23;;
11453;SDS011;5783;55.174;61.310;2023-01-19T04:57:53;4.30;;;2.37;;
11453;SDS011;5783;55.174;61.310;2023-01-19T05:00:22;5.03;;;2.23;;
11453;SDS011;5783;55.174;61.310;2023-01-19T05:02:51;4.77;;;2.50;;
11453;SDS011;5783;55.174;61.310;2023-01-19T05:05:23;4.00;;;2.37;;
11453;SDS011;5783;55.174;61.310;2023-01-19T05:07:52;4.67;;;2.60;;
11453;SDS011;5783;55.174;61.310;2023-01-19T05:10:21;5.23;;;2.40;;
11453;SDS011;5783;55.174;61.310;2023-01-19T05:12:51;6.33;;;2.63;;
11453;SDS011;5783;55.174;61.310;2023-01-19T05:15:20;5.80;;;2.47;;
11453;SDS011;5783;55.174;61.310;2023-01-19T05:17:49;5.40;;;2.50;;
11453;SDS011;5783;55.174;61.310;2023-01-19T05:20:18;4.27;;;2.40;;
11453;SDS011;5783;55.174;61.310;2023-01-19T05:22:48;4.40;;;2.57;;
11453;SDS011;5783;55.174;61.310;2023-01-19T05:25:18;3.97;;;2.40;;
11453;SDS011;5783;55.174;61.310;2023-01-19T05:27:48;3.73;;;2.63;;
11453;SDS011;5783;55.174;61.310;2023-01-19T05:30:17;6.07;;;3.00;;
11453;SDS011;5783;55.174;61.310;2023-01-19T05:32:46;5.27;;;2.80;;
11453;SDS011;5783;55.174;61.310;2023-01-19T05:35:15;6.67;;;2.90;;
11453;SDS011;5783;55.174;61.310;2023-01-19T05:37:45;4.77;;;2.47;;
11453;SDS011;5783;55.174;61.310;2023-01-19T05:40:14;7.90;;;3.10;;
11453;SDS011;5783;55.174;61.310;2023-01-19T05:42:43;8.97;;;3.10;;
11453;SDS011;5783;55.174;61.310;2023-01-19T05:45:13;5.20;;;2.90;;
11453;SDS011;5783;55.174;61.310;2023-01-19T05:47:42;8.13;;;3.60;;
11453;SDS011;5783;55.174;61.310;2023-01-19T05:50:11;10.83;;;3.10;;
11453;SDS011;5783;55.174;61.310;2023-01-19T05:52:40;7.97;;;3.07;;
11453;SDS011;5783;55.174;61.310;2023-01-19T05:55:09;7.67;;;3.20;;
11453;SDS011;5783;55.174;61.310;2023-01-19T05:57:41;6.00;;;3.10;;
11453;SDS011;5783;55.174;61.310;2023-01-19T06:00:11;9.57;;;2.70;;
11453;SDS011;5783;55.174;61.310;2023-01-19T06:02:41;10.57;;;3.10;;
11453;SDS011;5783;55.174;61.310;2023-01-19T06:05:12;7.17;;;2.90;;
11453;SDS011;5783;55.174;61.310;2023-01-19T06:07:41;7.97;;;3.00;;
11453;SDS011;5783;55.174;61.310;2023-01-19T06:10:10;7.30;;;3.17;;
11453;SDS011;5783;55.174;61.310;2023-01-19T06:12:40;8.57;;;3.40;;
11453;SDS011;5783;55.174;61.310;2023-01-19T06:15:09;10.03;;;3.47;;
11453;SDS011;5783;55.174;61.310;2023-01-19T06:17:39;6.93;;;3.10;;
11453;SDS011;5783;55.174;61.310;2023-01-19T06:20:08;8.23;;;3.13;;
11453;SDS011;5783;55.174;61.310;2023-01-19T06:22:40;9.03;;;3.47;;
11453;SDS011;5783;55.174;61.310;2023-01-19T06:25:09;7.63;;;3.20;;
11453;SDS011;5783;55.174;61.310;2023-01-19T06:27:41;5.53;;;3.17;;
11453;SDS011;5783;55.174;61.310;2023-01-19T06:30:29;5.93;;;2.97;;
11453;SDS011;5783;55.174;61.310;2023-01-19T06:32:58;6.83;;;2.90;;
11453;SDS011;5783;55.174;61.310;2023-01-19T06:35:27;8.30;;;2.80;;
11453;SDS011;5783;55.174;61.310;2023-01-19T06:37:56;4.47;;;2.73;;
11453;SDS011;5783;55.174;61.310;2023-01-19T06:40:25;6.53;;;2.80;;
11453;SDS011;5783;55.174;61.310;2023-01-19T06:42:54;6.07;;;2.70;;
11453;SDS011;5783;55.174;61.310;2023-01-19T06:45:24;5.57;;;2.80;;
11453;SDS011;5783;55.174;61.310;2023-01-19T06:47:53;5.50;;;2.83;;
11453;SDS011;5783;55.174;61.310;2023-01-19T06:50:22;7.47;;;2.97;;
11453;SDS011;5783;55.174;61.310;2023-01-19T06:52:51;10.03;;;3.33;;
11453;SDS011;5783;55.174;61.310;2023-01-19T06:55:20;8.87;;;3.67;;
11453;SDS011;5783;55.174;61.310;2023-01-19T07:00:39;8.27;;;2.77;;
11453;SDS011;5783;55.174;61.310;2023-01-19T07:03:08;4.63;;;2.53;;
11453;SDS011;5783;55.174;61.310;2023-01-19T07:05:40;7.53;;;2.50;;
11453;SDS011;5783;55.174;61.310;2023-01-19T07:08:09;6.50;;;2.80;;
11453;SDS011;5783;55.174;61.310;2023-01-19T07:10:40;8.50;;;2.90;;
11453;SDS011;5783;55.174;61.310;2023-01-19T07:13:10;6.73;;;3.00;;
11453;SDS011;5783;55.174;61.310;2023-01-19T07:15:39;9.43;;;3.07;;
11453;SDS011;5783;55.174;61.310;2023-01-19T07:18:08;4.27;;;2.77;;
11453;SDS011;5783;55.174;61.310;2023-01-19T07:20:38;7.50;;;2.67;;
11453;SDS011;5783;55.174;61.310;2023-01-19T07:23:09;7.77;;;2.43;;
11453;SDS011;5783;55.174;61.310;2023-01-19T07:25:38;4.50;;;2.37;;
11453;SDS011;5783;55.174;61.310;2023-01-19T07:28:07;7.27;;;2.63;;
11453;SDS011;5783;55.174;61.310;2023-01-19T07:30:38;5.73;;;2.70;;
11453;SDS011;5783;55.174;61.310;2023-01-19T07:33:07;9.07;;;2.87;;
11453;SDS011;5783;55.174;61.310;2023-01-19T07:35:37;4.63;;;2.33;;
11453;SDS011;5783;55.174;61.310;2023-01-19T07:38:06;4.13;;;2.70;;
11453;SDS011;5783;55.174;61.310;2023-01-19T07:40:35;4.63;;;2.00;;
11453;SDS011;5783;55.174;61.310;2023-01-19T07:43:04;6.10;;;2.40;;
11453;SDS011;5783;55.174;61.310;2023-01-19T07:45:33;3.90;;;2.27;;
11453;SDS011;5783;55.174;61.310;2023-01-19T07:48:03;4.77;;;2.30;;
11453;SDS011;5783;55.174;61.310;2023-01-19T07:50:33;4.23;;;2.10;;
11453;SDS011;5783;55.174;61.310;2023-01-19T07:56:24;3.40;;;2.20;;
11453;SDS011;5783;55.174;61.310;2023-01-19T07:58:41;3.73;;;2.00;;
11453;SDS011;5783;55.174;61.310;2023-01-19T08:01:12;6.10;;;2.37;;
11453;SDS011;5783;55.174;61.310;2023-01-19T08:03:41;4.43;;;2.23;;
11453;SDS011;5783;55.174;61.310;2023-01-19T08:09:02;5.50;;;2.20;;
11453;SDS011;5783;55.174;61.310;2023-01-19T08:11:32;4.17;;;2.33;;
11453;SDS011;5783;55.174;61.310;2023-01-19T08:14:01;3.23;;;2.40;;
11453;SDS011;5783;55.174;61.310;2023-01-19T08:16:30;3.90;;;2.00;;
11453;SDS011;5783;55.174;61.310;2023-01-19T08:19:00;7.60;;;2.60;;
11453;SDS011;5783;55.174;61.310;2023-01-19T08:21:29;3.10;;;2.20;;
11453;SDS011;5783;55.174;61.310;2023-01-19T08:23:58;6.10;;;2.23;;
11453;SDS011;5783;55.174;61.310;2023-01-19T08:26:28;3.77;;;2.17;;
11453;SDS011;5783;55.174;61.310;2023-01-19T08:29:00;4.00;;;2.40;;
11453;SDS011;5783;55.174;61.310;2023-01-19T08:31:31;7.20;;;2.50;;
11453;SDS011;5783;55.174;61.310;2023-01-19T08:34:00;5.17;;;2.57;;
11453;SDS011;5783;55.174;61.310;2023-01-19T08:36:30;5.57;;;2.30;;
11453;SDS011;5783;55.174;61.310;2023-01-19T08:38:59;4.30;;;2.50;;
11453;SDS011;5783;55.174;61.310;2023-01-19T08:41:28;4.17;;;2.30;;
11453;SDS011;5783;55.174;61.310;2023-01-19T08:43:58;5.37;;;2.30;;
11453;SDS011;5783;55.174;61.310;2023-01-19T08:46:27;5.40;;;2.57;;
11453;SDS011;5783;55.174;61.310;2023-01-19T08:48:57;7.10;;;2.40;;
11453;SDS011;5783;55.174;61.310;2023-01-19T08:51:26;5.20;;;2.43;;
11453;SDS011;5783;55.174;61.310;2023-01-19T08:53:55;4.53;;;2.80;;
11453;SDS011;5783;55.174;61.310;2023-01-19T08:56:24;5.90;;;2.50;;
11453;SDS011;5783;55.174;61.310;2023-01-19T08:58:54;6.40;;;2.90;;
11453;SDS011;5783;55.174;61.310;2023-01-19T09:01:23;6.87;;;2.67;;
11453;SDS011;5783;55.174;61.310;2023-01-19T09:03:52;5.47;;;2.83;;
11453;SDS011;5783;55.174;61.310;2023-01-19T09:06:21;5.03;;;2.60;;
11453;SDS011;5783;55.174;61.310;2023-01-19T09:08:51;5.23;;;2.63;;
11453;SDS011;5783;55.174;61.310;2023-01-19T09:11:20;3.43;;;2.40;;
11453;SDS011;5783;55.174;61.310;2023-01-19T09:13:49;6.00;;;2.27;;
11453;SDS011;5783;55.174;61.310;2023-01-19T09:16:18;3.20;;;2.40;;
11453;SDS011;5783;55.174;61.310;2023-01-19T09:18:47;6.00;;;2.73;;
11453;SDS011;5783;55.174;61.310;2023-01-19T09:21:16;5.67;;;2.50;;
11453;SDS011;5783;55.174;61.310;2023-01-19T09:23:46;4.87;;;2.40;;
11453;SDS011;5783;55.174;61.310;2023-01-19T09:26:15;5.33;;;2.37;;
11453;SDS011;5783;55.174;61.310;2023-01-19T09:28:44;3.43;;;2.40;;
11453;SDS011;5783;55.174;61.310;2023-01-19T09:31:13;3.77;;;2.30;;
11453;SDS011;5783;55.174;61.310;2023-01-19T09:33:42;4.47;;;2.03;;
11453;SDS011;5783;55.174;61.310;2023-01-19T09:36:11;4.13;;;2.20;;
11453;SDS011;5783;55.174;61.310;2023-01-19T09:38:41;4.53;;;2.00;;
11453;SDS011;5783;55.174;61.310;2023-01-19T09:44:00;4.83;;;2.03;;
11453;SDS011;5783;55.174;61.310;2023-01-19T09:52:09;5.23;;;2.20;;
11453;SDS011;5783;55.174;61.310;2023-01-19T09:54:58;3.83;;;2.07;;
11453;SDS011;5783;55.174;61.310;2023-01-19T09:57:34;4.03;;;2.03;;
11453;SDS011;5783;55.174;61.310;2023-01-19T09:59:59;4.30;;;2.20;;
11453;SDS011;5783;55.174;61.310;2023-01-19T10:08:32;3.87;;;2.10;;
11453;SDS011;5783;55.174;61.310;2023-01-19T10:20:12;3.10;;;2.13;;
11453;SDS011;5783;55.174;61.310;2023-01-19T10:22:44;3.67;;;1.90;;
11453;SDS011;5783;55.174;61.310;2023-01-19T10:25:33;2.50;;;1.93;;
11453;SDS011;5783;55.174;61.310;2023-01-19T10:28:02;6.97;;;2.20;;
11453;SDS011;5783;55.174;61.310;2023-01-19T10:30:31;2.50;;;1.90;;
11453;SDS011;5783;55.174;61.310;2023-01-19T10:33:00;3.80;;;2.10;;
11453;SDS011;5783;55.174;61.310;2023-01-19T10:35:30;3.87;;;2.10;;
11453;SDS011;5783;55.174;61.310;2023-01-19T10:38:00;2.87;;;1.97;;
11453;SDS011;5783;55.174;61.310;2023-01-19T10:52:43;3.63;;;1.93;;
11453;SDS011;5783;55.174;61.310;2023-01-19T10:55:01;4.07;;;1.83;;
11453;SDS011;5783;55.174;61.310;2023-01-19T10:57:33;3.13;;;1.97;;
11453;SDS011;5783;55.174;61.310;2023-01-19T11:00:05;3.37;;;2.07;;
11453;SDS011;5783;55.174;61.310;2023-01-19T11:02:35;3.47;;;1.90;;
11453;SDS011;5783;55.174;61.310;2023-01-19T11:07:57;3.83;;;2.10;;
11453;SDS011;5783;55.174;61.310;2023-01-19T11:10:27;3.63;;;1.97;;
11453;SDS011;5783;55.174;61.310;2023-01-19T11:12:59;4.87;;;1.90;;
11453;SDS011;5783;55.174;61.310;2023-01-19T11:15:51;3.07;;;1.83;;
11453;SDS011;5783;55.174;61.310;2023-01-19T11:18:39;4.10;;;2.17;;
11453;SDS011;5783;55.174;61.310;2023-01-19T11:21:12;2.93;;;2.07;;
11453;SDS011;5783;55.174;61.310;2023-01-19T11:23:44;3.57;;;2.10;;
11453;SDS011;5783;55.174;61.310;2023-01-19T11:29:26;4.47;;;2.20;;
11453;SDS011;5783;55.174;61.310;2023-01-19T11:32:08;3.60;;;2.00;;
11453;SDS011;5783;55.174;61.310;2023-01-19T11:42:39;3.00;;;1.97;;
11453;SDS011;5783;55.174;61.310;2023-01-19T11:48:00;3.80;;;2.23;;
11453;SDS011;5783;55.174;61.310;2023-01-19T11:53:21;2.20;;;1.83;;
11453;SDS011;5783;55.174;61.310;2023-01-19T11:58:43;2.47;;;1.90;;
11453;SDS011;5783;55.174;61.310;2023-01-19T12:06:37;4.03;;;1.90;;
11453;SDS011;5783;55.174;61.310;2023-01-19T12:23:24;4.33;;;2.20;;
11453;SDS011;5783;55.174;61.310;2023-01-19T12:29:04;4.90;;;2.37;;
11453;SDS011;5783;55.174;61.310;2023-01-19T12:31:35;3.77;;;2.33;;
11453;SDS011;5783;55.174;61.310;2023-01-19T12:43:12;4.67;;;2.50;;
11453;SDS011;5783;55.174;61.310;2023-01-19T12:45:43;3.17;;;2.30;;
11453;SDS011;5783;55.174;61.310;2023-01-19T12:48:46;4.20;;;2.50;;
11453;SDS011;5783;55.174;61.310;2023-01-19T12:51:03;5.90;;;2.40;;
11453;SDS011;5783;55.174;61.310;2023-01-19T12:53:33;3.77;;;2.40;;
11453;SDS011;5783;55.174;61.310;2023-01-19T12:56:02;3.53;;;2.27;;
11453;SDS011;5783;55.174;61.310;2023-01-19T12:58:34;4.47;;;2.50;;
11453;SDS011;5783;55.174;61.310;2023-01-19T13:09:35;6.13;;;3.37;;
11453;SDS011;5783;55.174;61.310;2023-01-19T13:26:53;5.13;;;3.10;;
11453;SDS011;5783;55.174;61.310;2023-01-19T13:32:15;8.57;;;3.20;;
11453;SDS011;5783;55.174;61.310;2023-01-19T13:37:56;5.80;;;3.20;;
11453;SDS011;5783;55.174;61.310;2023-01-19T13:40:30;4.63;;;2.80;;
11453;SDS011;5783;55.174;61.310;2023-01-19T13:42:59;5.60;;;3.00;;
11453;SDS011;5783;55.174;61.310;2023-01-19T13:48:18;4.80;;;2.73;;
11453;SDS011;5783;55.174;61.310;2023-01-19T13:53:39;4.47;;;2.87;;
11453;SDS011;5783;55.174;61.310;2023-01-19T14:01:49;4.43;;;2.67;;
11453;SDS011;5783;55.174;61.310;2023-01-19T14:07:12;3.53;;;2.90;;
11453;SDS011;5783;55.174;61.310;2023-01-19T14:12:56;4.90;;;2.70;;
11453;SDS011;5783;55.174;61.310;2023-01-19T14:15:37;5.07;;;2.63;;
11453;SDS011;5783;55.174;61.310;2023-01-19T14:40:32;3.80;;;3.00;;
11453;SDS011;5783;55.174;61.310;2023-01-19T14:43:04;3.40;;;2.80;;
11453;SDS011;5783;55.174;61.310;2023-01-19T14:56:36;6.43;;;3.33;;
11453;SDS011;5783;55.174;61.310;2023-01-19T14:59:07;5.13;;;3.20;;
11453;SDS011;5783;55.174;61.310;2023-01-19T15:01:37;6.63;;;2.97;;
11453;SDS011;5783;55.174;61.310;2023-01-19T15:04:06;4.10;;;2.90;;
11453;SDS011;5783;55.174;61.310;2023-01-19T15:06:37;5.23;;;2.77;;
11453;SDS011;5783;55.174;61.310;2023-01-19T15:09:25;5.67;;;2.87;;
11453;SDS011;5783;55.174;61.310;2023-01-19T15:11:55;4.97;;;3.30;;
11453;SDS011;5783;55.174;61.310;2023-01-19T15:14:24;6.83;;;2.97;;
11453;SDS011;5783;55.174;61.310;2023-01-19T15:16:53;4.27;;;3.13;;
11453;SDS011;5783;55.174;61.310;2023-01-19T15:19:22;5.47;;;3.07;;
11453;SDS011;5783;55.174;61.310;2023-01-19T15:21:51;4.50;;;2.70;;
11453;SDS011;5783;55.174;61.310;2023-01-19T15:24:20;5.27;;;3.10;;
11453;SDS011;5783;55.174;61.310;2023-01-19T15:26:49;3.90;;;3.00;;
11453;SDS011;5783;55.174;61.310;2023-01-19T15:31:51;3.87;;;2.60;;
11453;SDS011;5783;55.174;61.310;2023-01-19T15:34:20;3.10;;;2.60;;
11453;SDS011;5783;55.174;61.310;2023-01-19T15:36:50;3.60;;;2.73;;
11453;SDS011;5783;55.174;61.310;2023-01-19T15:39:19;4.73;;;2.90;;
11453;SDS011;5783;55.174;61.310;2023-01-19T15:41:48;3.63;;;2.63;;
11453;SDS011;5783;55.174;61.310;2023-01-19T15:44:17;3.50;;;2.73;;
11453;SDS011;5783;55.174;61.310;2023-01-19T15:46:46;5.33;;;2.90;;
11453;SDS011;5783;55.174;61.310;2023-01-19T15:49:17;4.53;;;2.50;;
11453;SDS011;5783;55.174;61.310;2023-01-19T15:51:46;3.70;;;2.60;;
11453;SDS011;5783;55.174;61.310;2023-01-19T15:54:15;4.87;;;2.60;;
11453;SDS011;5783;55.174;61.310;2023-01-19T15:56:46;3.63;;;2.70;;
11453;SDS011;5783;55.174;61.310;2023-01-19T15:59:17;4.10;;;2.57;;
11453;SDS011;5783;55.174;61.310;2023-01-19T16:01:48;4.50;;;2.63;;
11453;SDS011;5783;55.174;61.310;2023-01-19T16:04:36;4.30;;;2.63;;
11453;SDS011;5783;55.174;61.310;2023-01-19T16:10:00;4.63;;;2.90;;
11453;SDS011;5783;55.174;61.310;2023-01-19T16:13:10;5.53;;;3.17;;
11453;SDS011;5783;55.174;61.310;2023-01-19T16:18:36;4.70;;;2.70;;
11453;SDS011;5783;55.174;61.310;2023-01-19T16:21:05;4.57;;;2.90;;
11453;SDS011;5783;55.174;61.310;2023-01-19T16:23:34;3.67;;;2.80;;
11453;SDS011;5783;55.174;61.310;2023-01-19T16:26:05;3.67;;;2.90;;
11453;SDS011;5783;55.174;61.310;2023-01-19T16:28:35;6.03;;;2.90;;
11453;SDS011;5783;55.174;61.310;2023-01-19T16:31:05;4.10;;;2.80;;
11453;SDS011;5783;55.174;61.310;2023-01-19T16:33:34;4.30;;;2.90;;
11453;SDS011;5783;55.174;61.310;2023-01-19T16:39:12;3.27;;;2.70;;
11453;SDS011;5783;55.174;61.310;2023-01-19T16:41:42;4.00;;;2.57;;
11453;SDS011;5783;55.174;61.310;2023-01-19T16:44:14;4.57;;;2.77;;
11453;SDS011;5783;55.174;61.310;2023-01-19T16:46:44;3.00;;;2.40;;
11453;SDS011;5783;55.174;61.310;2023-01-19T16:49:17;4.00;;;2.50;;
11453;SDS011;5783;55.174;61.310;2023-01-19T16:51:49;3.80;;;2.47;;
11453;SDS011;5783;55.174;61.310;2023-01-19T16:54:20;4.00;;;2.60;;
11453;SDS011;5783;55.174;61.310;2023-01-19T16:57:10;3.50;;;2.40;;
11453;SDS011;5783;55.174;61.310;2023-01-19T16:59:39;2.93;;;2.30;;
11453;SDS011;5783;55.174;61.310;2023-01-19T17:02:10;3.90;;;2.50;;
11453;SDS011;5783;55.174;61.310;2023-01-19T17:04:39;3.23;;;2.47;;
11453;SDS011;5783;55.174;61.310;2023-01-19T17:07:08;3.63;;;2.53;;
11453;SDS011;5783;55.174;61.310;2023-01-19T17:09:37;4.33;;;2.73;;
11453;SDS011;5783;55.174;61.310;2023-01-19T17:12:06;5.00;;;2.53;;
11453;SDS011;5783;55.174;61.310;2023-01-19T17:14:37;4.37;;;2.53;;
11453;SDS011;5783;55.174;61.310;2023-01-19T17:17:07;3.10;;;2.67;;
11453;SDS011;5783;55.174;61.310;2023-01-19T17:19:37;3.57;;;2.70;;
11453;SDS011;5783;55.174;61.310;2023-01-19T17:22:06;3.30;;;2.57;;
11453;SDS011;5783;55.174;61.310;2023-01-19T17:24:36;3.63;;;2.50;;
11453;SDS011;5783;55.174;61.310;2023-01-19T17:27:07;3.53;;;2.60;;
11453;SDS011;5783;55.174;61.310;2023-01-19T17:29:37;4.03;;;2.80;;
11453;SDS011;5783;55.174;61.310;2023-01-19T17:32:06;6.10;;;2.83;;
11453;SDS011;5783;55.174;61.310;2023-01-19T17:34:35;4.63;;;2.60;;
11453;SDS011;5783;55.174;61.310;2023-01-19T17:37:05;2.87;;;2.50;;
11453;SDS011;5783;55.174;61.310;2023-01-19T17:39:34;3.83;;;2.90;;
11453;SDS011;5783;55.174;61.310;2023-01-19T17:42:03;4.07;;;2.70;;
11453;SDS011;5783;55.174;61.310;2023-01-19T17:44:32;3.37;;;2.50;;
11453;SDS011;5783;55.174;61.310;2023-01-19T17:47:02;3.33;;;2.73;;
11453;SDS011;5783;55.174;61.310;2023-01-19T17:49:31;3.37;;;2.60;;
11453;SDS011;5783;55.174;61.310;2023-01-19T17:52:00;2.97;;;2.37;;
11453;SDS011;5783;55.174;61.310;2023-01-19T17:54:29;3.00;;;2.40;;
11453;SDS011;5783;55.174;61.310;2023-01-19T17:56:58;4.13;;;2.50;;
11453;SDS011;5783;55.174;61.310;2023-01-19T17:59:27;3.00;;;2.60;;
11453;SDS011;5783;55.174;61.310;2023-01-19T18:01:57;3.53;;;2.73;;
11453;SDS011;5783;55.174;61.310;2023-01-19T18:04:26;4.80;;;2.77;;
11453;SDS011;5783;55.174;61.310;2023-01-19T18:06:55;2.97;;;2.60;;
11453;SDS011;5783;55.174;61.310;2023-01-19T18:09:24;3.40;;;2.63;;
11453;SDS011;5783;55.174;61.310;2023-01-19T18:11:54;2.90;;;2.60;;
11453;SDS011;5783;55.174;61.310;2023-01-19T18:14:23;3.80;;;2.70;;
11453;SDS011;5783;55.174;61.310;2023-01-19T18:16:52;2.80;;;2.30;;
11453;SDS011;5783;55.174;61.310;2023-01-19T18:19:21;4.87;;;2.87;;
11453;SDS011;5783;55.174;61.310;2023-01-19T18:21:52;2.90;;;2.40;;
11453;SDS011;5783;55.174;61.310;2023-01-19T18:24:41;4.37;;;2.53;;
11453;SDS011;5783;55.174;61.310;2023-01-19T18:27:10;3.70;;;2.70;;
11453;SDS011;5783;55.174;61.310;2023-01-19T18:29:41;3.87;;;2.67;;
11453;SDS011;5783;55.174;61.310;2023-01-19T18:32:11;5.00;;;2.90;;
11453;SDS011;5783;55.174;61.310;2023-01-19T18:34:40;3.27;;;2.50;;
11453;SDS011;5783;55.174;61.310;2023-01-19T18:37:29;4.83;;;2.70;;
11453;SDS011;5783;55.174;61.310;2023-01-19T18:39:58;3.37;;;2.70;;
11453;SDS011;5783;55.174;61.310;2023-01-19T18:42:29;4.53;;;2.63;;
11453;SDS011;5783;55.174;61.310;2023-01-19T18:44:58;5.13;;;2.40;;
11453;SDS011;5783;55.174;61.310;2023-01-19T18:47:27;3.43;;;2.37;;
11453;SDS011;5783;55.174;61.310;2023-01-19T18:49:56;3.70;;;2.53;;
11453;SDS011;5783;55.174;61.310;2023-01-19T18:52:25;4.87;;;2.77;;
11453;SDS011;5783;55.174;61.310;2023-01-19T18:54:56;3.97;;;2.70;;
11453;SDS011;5783;55.174;61.310;2023-01-19T18:57:25;4.03;;;2.80;;